createdAt,value
2018-11-13T00:00:44.229Z,52.1
2018-11-13T00:01:43.962Z,52.16
2018-11-13T00:02:44.185Z,52.13
2018-11-13T00:03:44.021Z,52.14
2018-11-13T00:04:44.407Z,52.12
2018-11-13T00:05:43.932Z,52.18
2018-11-13T00:06:44.159Z,52.13
2018-11-13T00:07:44.246Z,52.14
2018-11-13T00:08:44.152Z,52.13
2018-11-13T00:09:44.472Z,52.17
2018-11-13T00:10:44.045Z,52.14
2018-11-13T00:11:44.128Z,52.14
2018-11-13T00:12:44.389Z,52.13
2018-11-13T00:13:44.264Z,52.16
2018-11-13T00:14:44.176Z,52.16
2018-11-13T00:15:44.115Z,52.15
2018-11-13T00:16:43.972Z,52.15
2018-11-13T00:17:44.149Z,52.2
2018-11-13T00:18:43.979Z,52.18
2018-11-13T00:19:44.169Z,52.18
2018-11-13T00:20:43.912Z,52.16
2018-11-13T00:21:44.127Z,52.12
2018-11-13T00:22:44.192Z,52.2
2018-11-13T00:23:43.961Z,52.23
2018-11-13T00:24:43.977Z,52.21
2018-11-13T00:25:43.995Z,52.16
2018-11-13T00:26:44.076Z,52.23
2018-11-13T00:27:44.381Z,52.21
2018-11-13T00:28:44.085Z,52.21
2018-11-13T00:29:44.052Z,52.19
2018-11-13T00:30:44.171Z,52.21
2018-11-13T00:31:44.143Z,52.19
2018-11-13T00:32:44.222Z,52.26
2018-11-13T00:33:44.051Z,52.2
2018-11-13T00:34:43.945Z,52.2
2018-11-13T00:35:44.435Z,52.22
2018-11-13T00:36:44.057Z,52.25
2018-11-13T00:37:44.088Z,52.25
2018-11-13T00:38:43.941Z,52.25
2018-11-13T00:39:44.195Z,52.17
2018-11-13T00:40:43.939Z,52.26
2018-11-13T00:41:44.047Z,52.23
2018-11-13T00:42:43.905Z,52.26
2018-11-13T00:43:43.987Z,52.27
2018-11-13T00:44:44.123Z,52.22
2018-11-13T00:45:45.662Z,52.23
2018-11-13T00:46:44.101Z,52.22
2018-11-13T00:47:44.112Z,52.24
2018-11-13T00:48:44.060Z,52.21
2018-11-13T00:49:44.226Z,52.27
2018-11-13T00:50:45.299Z,52.25
2018-11-13T00:51:44.052Z,52.3
2018-11-13T00:52:44.243Z,52.32
2018-11-13T00:53:44.259Z,52.32
2018-11-13T00:54:44.422Z,52.29
2018-11-13T00:55:44.359Z,52.29
2018-11-13T00:56:44.111Z,52.25
2018-11-13T00:57:44.070Z,52.28
2018-11-13T00:58:44.364Z,52.27
2018-11-13T00:59:44.040Z,52.26
2018-11-13T01:00:44.347Z,52.25
2018-11-13T01:01:43.978Z,52.23
2018-11-13T01:02:44.442Z,52.26
2018-11-13T01:03:44.122Z,52.27
2018-11-13T01:04:44.369Z,52.24
2018-11-13T01:05:45.344Z,52.28
2018-11-13T01:06:44.010Z,52.29
2018-11-13T01:07:44.413Z,52.18
2018-11-13T01:08:44.112Z,52.26
2018-11-13T01:09:43.932Z,52.28
2018-11-13T01:10:43.866Z,52.32
2018-11-13T01:11:44.082Z,52.33
2018-11-13T01:12:44.441Z,52.29
2018-11-13T01:13:44.021Z,52.28
2018-11-13T01:14:44.191Z,52.28
2018-11-13T01:15:44.052Z,52.31
2018-11-13T01:16:44.084Z,52.33
2018-11-13T01:17:43.921Z,52.3
2018-11-13T01:18:44.149Z,52.3
2018-11-13T01:19:43.974Z,52.36
2018-11-13T01:20:43.998Z,52.3
2018-11-13T01:21:44.157Z,52.33
2018-11-13T01:22:44.121Z,52.34
2018-11-13T01:23:44.062Z,52.33
2018-11-13T01:24:44.401Z,52.32
2018-11-13T01:25:44.123Z,52.34
2018-11-13T01:26:44.086Z,52.29
2018-11-13T01:27:44.007Z,52.35
2018-11-13T01:28:44.222Z,52.35
2018-11-13T01:29:44.315Z,52.38
2018-11-13T01:30:44.034Z,52.35
2018-11-13T01:31:44.156Z,52.31
2018-11-13T01:32:43.980Z,52.36
2018-11-13T01:33:44.104Z,52.38
2018-11-13T01:34:44.196Z,52.31
2018-11-13T01:35:43.981Z,52.4
2018-11-13T01:36:44.206Z,52.36
2018-11-13T01:37:44.163Z,52.34
2018-11-13T01:38:44.097Z,52.34
2018-11-13T01:39:44.025Z,52.36
2018-11-13T01:40:44.067Z,52.4
2018-11-13T01:41:44.762Z,52.34
2018-11-13T01:42:44.307Z,52.41
2018-11-13T01:43:43.880Z,52.4
2018-11-13T01:44:44.092Z,52.39
2018-11-13T01:45:44.114Z,52.4
2018-11-13T01:46:44.346Z,52.4
2018-11-13T01:47:44.255Z,52.38
2018-11-13T01:48:43.959Z,52.38
2018-11-13T01:49:44.037Z,52.38
2018-11-13T01:50:43.983Z,52.42
2018-11-13T01:51:44.217Z,52.37
2018-11-13T01:52:44.167Z,52.42
2018-11-13T01:53:44.093Z,52.4
2018-11-13T01:54:43.907Z,52.43
2018-11-13T01:55:44.023Z,52.39
2018-11-13T01:56:44.065Z,52.38
2018-11-13T01:57:44.038Z,52.4
2018-11-13T01:58:44.079Z,52.38
2018-11-13T01:59:43.913Z,52.43
2018-11-13T02:00:44.035Z,52.42
2018-11-13T02:01:44.034Z,52.39
2018-11-13T02:02:44.135Z,52.44
2018-11-13T02:03:43.865Z,52.43
2018-11-13T02:04:43.994Z,52.38
2018-11-13T02:05:44.196Z,52.38
2018-11-13T02:06:44.093Z,52.41
2018-11-13T02:07:44.110Z,52.36
2018-11-13T02:08:43.938Z,52.45
2018-11-13T02:09:44.112Z,52.43
2018-11-13T02:10:43.942Z,52.43
2018-11-13T02:11:44.109Z,52.44
2018-11-13T02:12:43.858Z,52.42
2018-11-13T02:13:44.055Z,52.44
2018-11-13T02:14:43.962Z,52.44
2018-11-13T02:15:44.037Z,52.46
2018-11-13T02:16:44.049Z,52.42
2018-11-13T02:17:44.555Z,52.44
2018-11-13T02:18:43.873Z,52.39
2018-11-13T02:19:44.272Z,52.48
2018-11-13T02:20:44.307Z,52.47
2018-11-13T02:21:43.881Z,52.41
2018-11-13T02:22:44.129Z,52.46
2018-11-13T02:23:44.230Z,52.45
2018-11-13T02:24:44.100Z,52.45
2018-11-13T02:25:43.977Z,52.46
2018-11-13T02:26:44.037Z,52.47
2018-11-13T02:27:44.238Z,52.42
2018-11-13T02:28:44.052Z,52.42
2018-11-13T02:29:44.060Z,52.52
2018-11-13T02:30:43.864Z,52.45
2018-11-13T02:31:44.356Z,52.46
2018-11-13T02:32:43.922Z,52.45
2018-11-13T02:33:44.190Z,52.41
2018-11-13T02:34:43.864Z,52.51
2018-11-13T02:35:44.640Z,52.48
2018-11-13T02:36:43.981Z,52.53
2018-11-13T02:37:44.005Z,52.48
2018-11-13T02:38:43.919Z,52.48
2018-11-13T02:39:43.867Z,52.47
2018-11-13T02:40:44.335Z,52.47
2018-11-13T02:41:43.943Z,52.43
2018-11-13T02:42:43.970Z,52.51
2018-11-13T02:43:44.229Z,52.46
2018-11-13T02:44:44.338Z,52.46
2018-11-13T02:45:44.156Z,52.48
2018-11-13T02:46:44.169Z,52.51
2018-11-13T02:47:43.919Z,52.5
2018-11-13T02:48:44.093Z,52.5
2018-11-13T02:49:44.013Z,52.5
2018-11-13T02:50:44.147Z,52.45
2018-11-13T02:51:43.988Z,52.44
2018-11-13T02:52:44.226Z,52.49
2018-11-13T02:53:44.029Z,52.5
2018-11-13T02:54:43.996Z,52.48
2018-11-13T02:55:44.165Z,52.46
2018-11-13T02:56:43.923Z,52.46
2018-11-13T02:57:43.890Z,52.5
2018-11-13T02:58:44.234Z,52.43
2018-11-13T02:59:44.038Z,52.48
2018-11-13T03:00:43.898Z,52.53
2018-11-13T03:01:44.088Z,52.45
2018-11-13T03:02:44.125Z,52.48
2018-11-13T03:03:44.301Z,52.47
2018-11-13T03:04:43.810Z,52.5
2018-11-13T03:05:44.327Z,52.52
2018-11-13T03:06:43.849Z,52.49
2018-11-13T03:07:43.957Z,52.45
2018-11-13T03:08:44.090Z,52.44
2018-11-13T03:09:44.153Z,52.46
2018-11-13T03:10:44.157Z,52.51
2018-11-13T03:11:43.886Z,52.54
2018-11-13T03:12:44.200Z,52.48
2018-11-13T03:13:44.220Z,52.48
2018-11-13T03:14:44.078Z,52.49
2018-11-13T03:15:44.170Z,52.55
2018-11-13T03:16:44.073Z,52.51
2018-11-13T03:17:44.117Z,52.5
2018-11-13T03:18:43.943Z,52.52
2018-11-13T03:19:44.297Z,52.52
2018-11-13T03:20:43.963Z,52.51
2018-11-13T03:21:44.175Z,52.55
2018-11-13T03:22:44.104Z,52.51
2018-11-13T03:23:44.416Z,52.51
2018-11-13T03:24:44.140Z,52.54
2018-11-13T03:25:44.055Z,52.48
2018-11-13T03:26:44.082Z,52.57
2018-11-13T03:27:44.381Z,52.52
2018-11-13T03:28:44.141Z,52.51
2018-11-13T03:29:43.993Z,52.56
2018-11-13T03:30:44.392Z,52.53
2018-11-13T03:31:44.157Z,52.52
2018-11-13T03:32:44.101Z,52.54
2018-11-13T03:33:43.825Z,52.49
2018-11-13T03:34:44.544Z,52.53
2018-11-13T03:35:44.072Z,52.5
2018-11-13T03:36:43.863Z,52.54
2018-11-13T03:37:44.038Z,52.53
2018-11-13T03:38:43.933Z,52.55
2018-11-13T03:39:44.011Z,52.55
2018-11-13T03:40:43.923Z,52.56
2018-11-13T03:41:44.040Z,52.54
2018-11-13T03:42:44.341Z,52.57
2018-11-13T03:43:43.996Z,52.53
2018-11-13T03:44:43.851Z,52.52
2018-11-13T03:45:44.485Z,52.55
2018-11-13T03:46:43.864Z,52.52
2018-11-13T03:47:43.803Z,52.54
2018-11-13T03:48:43.808Z,52.55
2018-11-13T03:49:43.958Z,52.54
2018-11-13T03:50:44.381Z,52.55
2018-11-13T03:51:43.929Z,52.53
2018-11-13T03:52:44.357Z,52.57
2018-11-13T03:53:44.019Z,52.58
2018-11-13T03:54:43.955Z,52.56
2018-11-13T03:55:44.059Z,52.57
2018-11-13T03:56:43.787Z,52.58
2018-11-13T03:57:44.205Z,52.55
2018-11-13T03:58:44.082Z,52.52
2018-11-13T03:59:44.175Z,52.56
2018-11-13T04:00:43.983Z,52.61
2018-11-13T04:01:44.220Z,52.6
2018-11-13T04:02:44.372Z,52.58
2018-11-13T04:03:44.086Z,52.6
2018-11-13T04:04:44.204Z,52.55
2018-11-13T04:05:44.270Z,52.61
2018-11-13T04:06:44.006Z,52.57
2018-11-13T04:07:44.571Z,52.55
2018-11-13T04:08:43.847Z,52.57
2018-11-13T04:09:44.062Z,52.57
2018-11-13T04:10:43.804Z,52.58
2018-11-13T04:11:43.935Z,52.58
2018-11-13T04:12:44.101Z,52.66
2018-11-13T04:13:44.007Z,52.61
2018-11-13T04:14:43.751Z,52.59
2018-11-13T04:15:43.896Z,52.66
2018-11-13T04:16:44.210Z,52.58
2018-11-13T04:17:43.846Z,52.56
2018-11-13T04:18:44.277Z,52.59
2018-11-13T04:19:44.097Z,52.62
2018-11-13T04:20:44.065Z,52.6
2018-11-13T04:21:44.068Z,52.63
2018-11-13T04:22:43.959Z,52.59
2018-11-13T04:23:44.004Z,52.58
2018-11-13T04:24:43.877Z,52.58
2018-11-13T04:25:44.138Z,52.57
2018-11-13T04:26:43.956Z,52.62
2018-11-13T04:27:43.982Z,52.57
2018-11-13T04:28:43.938Z,52.56
2018-11-13T04:29:43.983Z,52.58
2018-11-13T04:30:44.514Z,52.59
2018-11-13T04:31:44.194Z,52.58
2018-11-13T04:32:44.122Z,52.57
2018-11-13T04:33:44.335Z,52.62
2018-11-13T04:34:44.028Z,52.56
2018-11-13T04:35:43.968Z,52.58
2018-11-13T04:36:44.118Z,52.55
2018-11-13T04:37:43.868Z,52.57
2018-11-13T04:38:44.031Z,52.55
2018-11-13T04:39:44.168Z,52.62
2018-11-13T04:40:44.021Z,52.57
2018-11-13T04:41:43.799Z,52.57
2018-11-13T04:42:44.303Z,52.57
2018-11-13T04:43:43.878Z,52.53
2018-11-13T04:44:44.378Z,52.6
2018-11-13T04:45:44.064Z,52.56
2018-11-13T04:46:44.836Z,52.52
2018-11-13T04:47:44.276Z,52.46
2018-11-13T04:48:43.903Z,52.53
2018-11-13T04:49:43.974Z,52.48
2018-11-13T04:50:43.975Z,52.5
2018-11-13T04:51:44.565Z,52.44
2018-11-13T04:52:43.936Z,52.48
2018-11-13T04:53:44.058Z,52.42
2018-11-13T04:54:44.365Z,52.46
2018-11-13T04:55:43.934Z,52.41
2018-11-13T04:56:44.238Z,52.44
2018-11-13T04:57:43.902Z,52.42
2018-11-13T04:58:44.169Z,52.32
2018-11-13T04:59:43.912Z,52.33
2018-11-13T05:00:44.212Z,52.32
2018-11-13T05:01:43.887Z,52.32
2018-11-13T05:02:43.999Z,52.42
2018-11-13T05:03:44.002Z,52.35
2018-11-13T05:04:43.942Z,52.35
2018-11-13T05:05:44.026Z,52.4
2018-11-13T05:06:43.957Z,52.29
2018-11-13T05:07:44.237Z,52.26
2018-11-13T05:08:43.793Z,52.28
2018-11-13T05:09:44.019Z,52.41
2018-11-13T05:10:43.841Z,52.28
2018-11-13T05:11:44.044Z,52.36
2018-11-13T05:12:43.831Z,52.33
2018-11-13T05:13:43.958Z,52.27
2018-11-13T05:14:44.080Z,52.41
2018-11-13T05:15:43.969Z,52.3
2018-11-13T05:16:44.006Z,52.31
2018-11-13T05:17:43.979Z,52.3
2018-11-13T05:18:44.066Z,52.29
2018-11-13T05:19:44.298Z,52.42
2018-11-13T05:20:44.272Z,52.26
2018-11-13T05:21:44.849Z,52.35
2018-11-13T05:22:44.244Z,52.37
2018-11-13T05:23:43.801Z,52.33
2018-11-13T05:24:43.973Z,52.36
2018-11-13T05:25:44.369Z,52.27
2018-11-13T05:26:43.803Z,52.29
2018-11-13T05:27:44.211Z,52.33
2018-11-13T05:28:43.939Z,52.32
2018-11-13T05:29:43.927Z,52.39
2018-11-13T05:30:43.934Z,52.38
2018-11-13T05:31:44.037Z,52.37
2018-11-13T05:32:43.964Z,52.49
2018-11-13T05:33:44.082Z,52.37
2018-11-13T05:34:43.913Z,52.4
2018-11-13T05:35:44.250Z,52.44
2018-11-13T05:36:43.773Z,52.41
2018-11-13T05:37:44.304Z,52.45
2018-11-13T05:38:44.134Z,52.4
2018-11-13T05:39:44.019Z,52.19
2018-11-13T05:40:44.242Z,52.24
2018-11-13T05:41:44.269Z,52.34
2018-11-13T05:42:44.036Z,52.38
2018-11-13T05:43:43.982Z,52.31
2018-11-13T05:44:43.727Z,52.47
2018-11-13T05:45:44.136Z,52.44
2018-11-13T05:46:44.063Z,52.48
2018-11-13T05:47:43.841Z,52.42
2018-11-13T05:48:43.889Z,52.4
2018-11-13T05:49:44.233Z,52.45
2018-11-13T05:50:43.846Z,52.37
2018-11-13T05:51:43.999Z,52.49
2018-11-13T05:52:44.168Z,52.4
2018-11-13T05:53:43.781Z,52.48
2018-11-13T05:54:43.761Z,52.39
2018-11-13T05:55:44.070Z,52.39
2018-11-13T05:56:44.137Z,52.48
2018-11-13T05:57:43.949Z,52.42
2018-11-13T05:58:43.894Z,52.35
2018-11-13T05:59:44.224Z,52.33
2018-11-13T06:00:44.534Z,52.43
2018-11-13T06:01:43.821Z,52.39
2018-11-13T06:02:43.883Z,52.32
2018-11-13T06:03:43.939Z,52.39
2018-11-13T06:04:44.135Z,52.31
2018-11-13T06:05:44.292Z,52.31
2018-11-13T06:06:43.959Z,52.33
2018-11-13T06:07:44.057Z,52.27
2018-11-13T06:08:44.332Z,52.32
2018-11-13T06:09:43.909Z,52.32
2018-11-13T06:10:44.091Z,52.3
2018-11-13T06:11:43.741Z,52.38
2018-11-13T06:12:44.158Z,52.29
2018-11-13T06:13:44.086Z,52.31
2018-11-13T06:14:44.214Z,52.36
2018-11-13T06:15:44.054Z,52.25
2018-11-13T06:16:44.437Z,52.35
2018-11-13T06:17:44.227Z,52.39
2018-11-13T06:18:43.853Z,52.36
2018-11-13T06:19:44.257Z,52.34
2018-11-13T06:20:43.785Z,52.25
2018-11-13T06:21:44.257Z,52.25
2018-11-13T06:22:44.146Z,52.3
2018-11-13T06:23:43.839Z,52.32
2018-11-13T06:24:43.968Z,52.21
2018-11-13T06:25:43.943Z,52.22
2018-11-13T06:26:44.537Z,52.18
2018-11-13T06:27:43.855Z,52.22
2018-11-13T06:28:43.931Z,52.19
2018-11-13T06:29:44.158Z,52.27
2018-11-13T06:30:43.997Z,52.26
2018-11-13T06:31:44.091Z,52.16
2018-11-13T06:32:43.841Z,52.22
2018-11-13T06:33:44.030Z,52.2
2018-11-13T06:34:43.949Z,52.27
2018-11-13T06:35:44.031Z,52.24
2018-11-13T06:36:43.885Z,52.2
2018-11-13T06:37:44.381Z,52.24
2018-11-13T06:38:44.876Z,52.19
2018-11-13T06:39:43.900Z,52.32
2018-11-13T06:40:43.840Z,52.27
2018-11-13T06:41:44.042Z,52.25
2018-11-13T06:42:43.805Z,52.22
2018-11-13T06:43:43.805Z,52.19
2018-11-13T06:44:44.053Z,52.3
2018-11-13T06:45:43.938Z,52.23
2018-11-13T06:46:43.961Z,52.18
2018-11-13T06:47:43.913Z,52.18
2018-11-13T06:48:43.983Z,52.19
2018-11-13T06:49:44.126Z,52.18
2018-11-13T06:50:43.887Z,52.15
2018-11-13T06:51:44.701Z,52.21
2018-11-13T06:52:43.766Z,52.22
2018-11-13T06:53:43.800Z,52.25
2018-11-13T06:54:43.937Z,52.26
2018-11-13T06:55:44.120Z,52.28
2018-11-13T06:56:43.890Z,52.19
2018-11-13T06:57:44.305Z,52.15
2018-11-13T06:58:43.947Z,52.16
2018-11-13T06:59:44.016Z,52.3
2018-11-13T07:00:44.408Z,52.16
2018-11-13T07:01:43.722Z,52.24
2018-11-13T07:02:43.846Z,52.18
2018-11-13T07:03:44.122Z,52.26
2018-11-13T07:04:43.798Z,52.17
2018-11-13T07:05:43.985Z,52.2
2018-11-13T07:06:44.419Z,52.22
2018-11-13T07:07:43.868Z,52.17
2018-11-13T07:08:43.956Z,52.24
2018-11-13T07:09:43.852Z,52.21
2018-11-13T07:10:44.326Z,52.18
2018-11-13T07:11:43.773Z,52.16
2018-11-13T07:12:44.135Z,52.23
2018-11-13T07:13:44.020Z,52.28
2018-11-13T07:14:44.081Z,52.16
2018-11-13T07:15:43.945Z,52.16
2018-11-13T07:16:44.127Z,52.17
2018-11-13T07:17:44.243Z,52.12
2018-11-13T07:18:43.839Z,52.23
2018-11-13T07:19:43.796Z,52.19
2018-11-13T07:20:43.862Z,52.2
2018-11-13T07:21:44.021Z,52.2
2018-11-13T07:22:44.025Z,52.17
2018-11-13T07:23:43.878Z,52.16
2018-11-13T07:24:43.773Z,52.18
2018-11-13T07:25:43.879Z,52.23
2018-11-13T07:26:44.137Z,52.13
2018-11-13T07:27:44.323Z,52.19
2018-11-13T07:28:43.941Z,52.21
2018-11-13T07:29:43.817Z,52.21
2018-11-13T07:30:44.207Z,52.14
2018-11-13T07:31:43.894Z,52.14
2018-11-13T07:32:43.990Z,52.16
2018-11-13T07:33:44.412Z,52.13
2018-11-13T07:34:43.837Z,52.19
2018-11-13T07:35:43.724Z,52.14
2018-11-13T07:36:44.146Z,52.2
2018-11-13T07:37:44.085Z,52.13
2018-11-13T07:38:43.949Z,52.12
2018-11-13T07:39:44.335Z,52.16
2018-11-13T07:40:44.139Z,52.17
2018-11-13T07:41:44.021Z,52.13
2018-11-13T07:42:44.137Z,52.2
2018-11-13T07:43:44.155Z,52.19
2018-11-13T07:44:43.888Z,52.14
2018-11-13T07:45:44.153Z,52.15
2018-11-13T07:46:44.032Z,52.16
2018-11-13T07:47:44.584Z,52.12
2018-11-13T07:48:44.005Z,52.23
2018-11-13T07:49:43.822Z,52.21
2018-11-13T07:50:43.946Z,52.16
2018-11-13T07:51:43.996Z,52.2
2018-11-13T07:52:43.970Z,52.22
2018-11-13T07:53:43.867Z,52.15
2018-11-13T07:54:44.120Z,52.2
2018-11-13T07:55:43.931Z,52.18
2018-11-13T07:56:43.928Z,52.18
2018-11-13T07:57:44.129Z,52.22
2018-11-13T07:58:44.122Z,52.18
2018-11-13T07:59:43.930Z,52.22
2018-11-13T08:00:43.913Z,52.17
2018-11-13T08:01:43.970Z,52.15
2018-11-13T08:02:43.946Z,52.2
2018-11-13T08:03:44.120Z,52.23
2018-11-13T08:04:43.849Z,52.22
2018-11-13T08:05:44.115Z,52.18
2018-11-13T08:06:44.602Z,52.2
2018-11-13T08:07:43.782Z,52.2
2018-11-13T08:08:43.890Z,52.17
2018-11-13T08:09:44.116Z,52.2
2018-11-13T08:10:44.018Z,52.23
2018-11-13T08:11:44.055Z,52.17
2018-11-13T08:12:44.104Z,52.18
2018-11-13T08:13:43.763Z,52.21
2018-11-13T08:14:43.790Z,52.2
2018-11-13T08:15:44.035Z,52.22
2018-11-13T08:16:44.207Z,52.23
2018-11-13T08:17:43.888Z,52.24
2018-11-13T08:18:43.873Z,52.19
2018-11-13T08:19:43.989Z,52.24
2018-11-13T08:20:43.746Z,52.21
2018-11-13T08:21:43.852Z,52.25
2018-11-13T08:22:43.807Z,52.22
2018-11-13T08:23:43.826Z,52.19
2018-11-13T08:24:44.090Z,52.21
2018-11-13T08:25:44.138Z,52.22
2018-11-13T08:26:43.945Z,52.19
2018-11-13T08:27:44.029Z,52.29
2018-11-13T08:28:44.133Z,52.26
2018-11-13T08:29:44.073Z,52.24
2018-11-13T08:30:44.569Z,52.18
2018-11-13T08:31:43.705Z,52.23
2018-11-13T08:32:43.905Z,52.21
2018-11-13T08:33:43.915Z,52.25
2018-11-13T08:34:43.808Z,52.29
2018-11-13T08:35:44.107Z,52.3
2018-11-13T08:36:43.731Z,52.31
2018-11-13T08:37:43.898Z,52.32
2018-11-13T08:38:44.042Z,52.29
2018-11-13T08:39:43.874Z,52.34
2018-11-13T08:40:43.920Z,52.39
2018-11-13T08:41:43.862Z,52.4
2018-11-13T08:42:44.266Z,52.44
2018-11-13T08:43:43.939Z,52.48
2018-11-13T08:44:44.151Z,52.44
2018-11-13T08:45:44.057Z,52.42
2018-11-13T08:46:43.819Z,52.41
2018-11-13T08:47:44.036Z,52.46
2018-11-13T08:48:43.838Z,52.43
2018-11-13T08:49:43.755Z,52.42
2018-11-13T08:50:43.967Z,52.46
2018-11-13T08:51:43.960Z,52.36
2018-11-13T08:52:43.841Z,52.38
2018-11-13T08:53:44.020Z,52.38
2018-11-13T08:54:43.704Z,52.34
2018-11-13T08:55:43.855Z,52.35
2018-11-13T08:56:43.926Z,52.31
2018-11-13T08:57:43.823Z,52.33
2018-11-13T08:58:43.787Z,52.34
2018-11-13T08:59:44.166Z,52.36
2018-11-13T09:00:43.896Z,52.31
2018-11-13T09:01:44.074Z,52.35
2018-11-13T09:02:44.236Z,52.34
2018-11-13T09:03:43.942Z,52.37
2018-11-13T09:04:44.065Z,52.3
2018-11-13T09:05:44.230Z,52.3
2018-11-13T09:06:43.838Z,52.29
2018-11-13T09:07:43.667Z,52.34
2018-11-13T09:08:44.023Z,52.31
2018-11-13T09:09:43.909Z,52.28
2018-11-13T09:10:43.911Z,52.29
2018-11-13T09:11:44.362Z,52.3
2018-11-13T09:12:43.824Z,52.31
2018-11-13T09:13:43.887Z,52.29
2018-11-13T09:14:44.047Z,52.34
2018-11-13T09:15:44.224Z,52.37
2018-11-13T09:16:43.943Z,52.28
2018-11-13T09:17:43.971Z,52.27
2018-11-13T09:18:44.082Z,52.29
2018-11-13T09:19:44.497Z,52.33
2018-11-13T09:20:44.165Z,52.3
2018-11-13T09:21:44.172Z,52.29
2018-11-13T09:22:43.979Z,52.33
2018-11-13T09:23:43.872Z,52.33
2018-11-13T09:24:44.367Z,52.25
2018-11-13T09:25:43.659Z,52.31
2018-11-13T09:26:44.057Z,52.29
2018-11-13T09:27:43.916Z,52.35
2018-11-13T09:28:43.968Z,52.34
2018-11-13T09:29:44.190Z,52.31
2018-11-13T09:30:45.048Z,52.34
2018-11-13T09:31:44.041Z,52.33
2018-11-13T09:32:43.971Z,52.33
2018-11-13T09:33:44.401Z,52.29
2018-11-13T09:34:43.816Z,52.31
2018-11-13T09:35:43.871Z,52.35
2018-11-13T09:36:43.874Z,52.33
2018-11-13T09:37:43.925Z,52.3
2018-11-13T09:38:44.079Z,52.38
2018-11-13T09:39:43.864Z,52.44
2018-11-13T09:40:44.003Z,52.44
2018-11-13T09:41:43.776Z,52.48
2018-11-13T09:42:43.941Z,52.48
2018-11-13T09:43:43.674Z,52.47
2018-11-13T09:44:44.124Z,52.43
2018-11-13T09:45:43.914Z,52.45
2018-11-13T09:46:43.975Z,52.49
2018-11-13T09:47:44.081Z,52.51
2018-11-13T09:48:44.006Z,52.49
2018-11-13T09:49:44.030Z,52.5
2018-11-13T09:50:44.060Z,52.47
2018-11-13T09:51:44.408Z,52.46
2018-11-13T09:52:43.753Z,52.42
2018-11-13T09:53:44.338Z,52.45
2018-11-13T09:54:43.914Z,52.44
2018-11-13T09:55:44.036Z,52.5
2018-11-13T09:56:43.971Z,52.44
2018-11-13T09:57:43.687Z,52.43
2018-11-13T09:58:44.144Z,52.45
2018-11-13T09:59:43.701Z,52.45
2018-11-13T10:00:44.474Z,52.48
2018-11-13T10:01:44.697Z,52.41
2018-11-13T10:02:45.876Z,52.46
2018-11-13T10:03:45.905Z,52.42
2018-11-13T10:04:45.945Z,52.53
2018-11-13T10:05:44.993Z,52.42
2018-11-13T10:06:43.872Z,52.39
2018-11-13T10:07:43.917Z,52.38
2018-11-13T10:08:43.808Z,52.44
2018-11-13T10:09:44.165Z,52.34
2018-11-13T10:10:44.109Z,52.34
2018-11-13T10:11:43.736Z,52.34
2018-11-13T10:12:43.940Z,52.35
2018-11-13T10:13:43.747Z,52.32
2018-11-13T10:14:43.856Z,52.31
2018-11-13T10:15:43.757Z,52.27
2018-11-13T10:16:44.012Z,52.36
2018-11-13T10:17:44.005Z,52.32
2018-11-13T10:18:43.777Z,52.38
2018-11-13T10:19:44.014Z,52.38
2018-11-13T10:20:44.128Z,52.42
2018-11-13T10:21:43.973Z,52.37
2018-11-13T10:22:43.703Z,52.41
2018-11-13T10:23:44.282Z,52.46
2018-11-13T10:24:43.903Z,52.52
2018-11-13T10:25:44.056Z,52.48
2018-11-13T10:26:44.276Z,52.48
2018-11-13T10:27:44.227Z,52.47
2018-11-13T10:28:43.662Z,52.45
2018-11-13T10:29:43.741Z,52.47
2018-11-13T10:30:43.921Z,52.53
2018-11-13T10:31:43.999Z,52.47
2018-11-13T10:32:43.908Z,52.55
2018-11-13T10:33:43.743Z,52.55
2018-11-13T10:34:43.915Z,52.51
2018-11-13T10:35:44.087Z,52.52
2018-11-13T10:36:44.045Z,52.51
2018-11-13T10:37:43.774Z,52.5
2018-11-13T10:38:43.807Z,52.47
2018-11-13T10:39:43.869Z,52.5
2018-11-13T10:40:44.177Z,52.51
2018-11-13T10:41:44.054Z,52.5
2018-11-13T10:42:43.817Z,52.49
2018-11-13T10:43:45.328Z,52.54
2018-11-13T10:44:43.655Z,52.51
2018-11-13T10:45:44.215Z,52.51
2018-11-13T10:46:43.626Z,52.52
2018-11-13T10:47:43.885Z,52.58
2018-11-13T10:48:43.976Z,52.55
2018-11-13T10:49:43.974Z,52.52
2018-11-13T10:50:43.828Z,52.52
2018-11-13T10:51:43.693Z,52.47
2018-11-13T10:52:43.949Z,52.5
2018-11-13T10:53:43.713Z,52.53
2018-11-13T10:54:43.752Z,52.52
2018-11-13T10:55:43.944Z,52.52
2018-11-13T10:56:43.738Z,52.52
2018-11-13T10:57:43.842Z,52.52
2018-11-13T10:58:43.993Z,52.48
2018-11-13T10:59:46.480Z,52.49
2018-11-13T11:00:43.682Z,52.52
2018-11-13T11:01:43.916Z,52.58
2018-11-13T11:02:44.476Z,52.54
2018-11-13T11:03:43.773Z,52.52
2018-11-13T11:04:43.822Z,52.53
2018-11-13T11:05:43.819Z,52.54
2018-11-13T11:06:44.257Z,52.52
2018-11-13T11:07:43.682Z,52.56
2018-11-13T11:08:43.761Z,52.54
2018-11-13T11:09:43.742Z,52.52
2018-11-13T11:10:43.815Z,52.51
2018-11-13T11:11:43.871Z,52.53
2018-11-13T11:12:43.888Z,52.5
2018-11-13T11:13:44.005Z,52.54
2018-11-13T11:14:43.692Z,52.53
2018-11-13T11:15:44.038Z,52.54
2018-11-13T11:16:43.653Z,52.48
2018-11-13T11:17:43.816Z,52.5
2018-11-13T11:18:44.425Z,52.51
2018-11-13T11:19:43.677Z,52.47
2018-11-13T11:20:43.853Z,52.5
2018-11-13T11:21:43.718Z,52.48
2018-11-13T11:22:43.967Z,52.5
2018-11-13T11:23:44.446Z,52.49
2018-11-13T11:24:43.835Z,52.52
2018-11-13T11:25:43.828Z,52.53
2018-11-13T11:26:43.711Z,52.55
2018-11-13T11:27:43.918Z,52.49
2018-11-13T11:28:43.812Z,52.45
2018-11-13T11:29:43.777Z,52.5
2018-11-13T11:30:43.643Z,52.52
2018-11-13T11:31:43.923Z,52.57
2018-11-13T11:32:43.964Z,52.5
2018-11-13T11:33:43.798Z,52.51
2018-11-13T11:34:43.867Z,52.46
2018-11-13T11:35:43.809Z,52.52
2018-11-13T11:36:43.864Z,52.48
2018-11-13T11:37:43.717Z,52.46
2018-11-13T11:38:44.309Z,52.5
2018-11-13T11:39:43.694Z,52.5
2018-11-13T11:40:43.639Z,52.54
2018-11-13T11:41:43.652Z,52.5
2018-11-13T11:42:43.806Z,52.53
2018-11-13T11:43:43.871Z,52.54
2018-11-13T11:44:43.662Z,52.53
2018-11-13T11:45:43.846Z,52.57
2018-11-13T11:46:44.021Z,52.52
2018-11-13T11:47:43.776Z,52.54
2018-11-13T11:48:43.626Z,52.55
2018-11-13T11:49:43.712Z,52.53
2018-11-13T11:50:43.874Z,52.53
2018-11-13T11:51:43.773Z,52.54
2018-11-13T11:52:43.880Z,52.53
2018-11-13T11:53:44.144Z,52.54
2018-11-13T11:54:44.100Z,52.5
2018-11-13T11:55:43.721Z,52.5
2018-11-13T11:56:43.906Z,52.55
2018-11-13T11:57:43.932Z,52.5
2018-11-13T11:58:43.891Z,52.5
2018-11-13T11:59:43.894Z,52.49
2018-11-13T12:00:44.187Z,52.5
2018-11-13T12:01:43.979Z,52.52
2018-11-13T12:02:43.818Z,52.47
2018-11-13T12:03:43.928Z,52.54
2018-11-13T12:04:43.989Z,52.49
2018-11-13T12:05:43.835Z,52.55
2018-11-13T12:06:44.608Z,52.51
2018-11-13T12:07:43.628Z,52.52
2018-11-13T12:08:43.883Z,52.54
2018-11-13T12:09:43.800Z,52.47
2018-11-13T12:10:43.571Z,52.5
2018-11-13T12:11:43.838Z,52.53
2018-11-13T12:12:43.636Z,52.54
2018-11-13T12:13:43.720Z,52.57
2018-11-13T12:14:43.855Z,52.49
2018-11-13T12:15:43.809Z,52.51
2018-11-13T12:16:43.627Z,52.52
2018-11-13T12:17:43.947Z,52.51
2018-11-13T12:18:43.937Z,52.57
2018-11-13T12:19:43.975Z,52.57
2018-11-13T12:20:43.933Z,52.52
2018-11-13T12:21:43.705Z,52.5
2018-11-13T12:22:43.775Z,52.52
2018-11-13T12:23:44.198Z,52.54
2018-11-13T12:24:44.629Z,52.51
2018-11-13T12:25:44.263Z,52.55
2018-11-13T12:26:43.804Z,52.56
2018-11-13T12:27:44.141Z,52.51
2018-11-13T12:28:43.653Z,52.53
2018-11-13T12:29:44.269Z,52.53
2018-11-13T12:30:43.818Z,52.55
2018-11-13T12:31:44.058Z,52.54
2018-11-13T12:32:44.795Z,52.51
2018-11-13T12:33:44.023Z,52.53
2018-11-13T12:34:44.276Z,52.55
2018-11-13T12:35:43.675Z,52.56
2018-11-13T12:36:43.862Z,52.49
2018-11-13T12:37:43.727Z,52.58
2018-11-13T12:38:43.723Z,52.54
2018-11-13T12:39:43.875Z,52.5
2018-11-13T12:40:44.244Z,52.52
2018-11-13T12:41:43.869Z,52.52
2018-11-13T12:42:44.037Z,52.53
2018-11-13T12:43:43.744Z,52.54
2018-11-13T12:44:43.791Z,52.53
2018-11-13T12:45:43.762Z,52.55
2018-11-13T12:46:43.703Z,52.53
2018-11-13T12:47:43.827Z,52.55
2018-11-13T12:48:43.931Z,52.5
2018-11-13T12:49:43.658Z,52.57
2018-11-13T12:50:43.833Z,52.52
2018-11-13T12:51:44.027Z,52.57
2018-11-13T12:52:44.113Z,52.48
2018-11-13T12:53:43.738Z,52.53
2018-11-13T12:54:43.808Z,52.52
2018-11-13T12:55:43.839Z,52.6